Ocean City, MD (21842)

4:05 AM EDT on September 02, 2015 (GMT -0400)
APRSWXNET | | Change Station
CLOSE
Current Station
Personal Weather Station
Location: Ocean City, MD
Elevation: 16 ft
Nearby Weather Stations

Elev 16 ft 38.39 °N, 75.13 °W | Updated 17 minutes ago

Clear
Clear
75 °F
Feels Like 74 °F
N
2
Wind Variable Wind from WSW
Gusts 4.0 mph

Today
High -- | Low -- °F
--% Chance of Precip.
Yesterday
High -- | Low -- °F
Precip. -- in
6:30 AM 7:29 PM
Waning Gibbous, 82% visible
Pressure 30.01 in
Visibility 10.0 miles
Clouds Clear
Heat Index 74 °F
Dew Point 72 °F
Humidity 91%
Rainfall in
Snow Depth Not available.
UV 0 out of 12
Pollen 10.10 out of 12
Air Quality Not available.
Flu Activity Not available.
METAR KOXB 020753Z AUTO 29005KT 10SM CLR 23/21 A3001 RMK AO2 SLP163 T02280211 TSNO
Pressure 30.01 in
Visibility 10.0 miles
Clouds Clear
Heat Index 74 °F
Dew Point 72 °F
Humidity 91%
Rainfall in
Snow Depth Not available.
UV 0 out of 12
Pollen 10.10 out of 12
Air Quality Not available.
Flu Activity Not available.
METAR KOXB 020753Z AUTO 29005KT 10SM CLR 23/21 A3001 RMK AO2 SLP163 T02280211 TSNO

10-Day Weather Forecast

×

Almanac

Astronomy

Sep. 02, 2015 Rise Set
Actual Time
Civil Twilight
Nautical Twilight
Astronomical Twilight
Moon
Length of Visible Light
Length of Day
Tomorrow will be .
, % of the Moon is Illuminated

Today's Extremes

State Highs State Lows

Community

WunderPhotos

Upload Photos

1,851,727 photos uploaded!

WunderBlogs® & News

Nearby

Air Quality

  Air Quality AQ Index Pollutant
Not available.

Snow Depth

Station Depth Elevation

Earthquake Activity

City Distance Mag. Time & Date
Minimum magnitude displayed is 2.5.

Coastal Water Temperatures

Place Temperature

Stations

Nearby Weather Stations

Station Location Temp. Windchill Dew Point Humidity Wind Precip. Elev Updated Type